Terminal Aerodrome Forecast
Issued by NWS

Current Version | Previous Version | Graphics & Text | Print | Product List | Glossary On
Versions: 1 2 3 4 5 6 7 8 9 10 11 12 13 14 15 16 17 18 19 20
179
FTUS41 KILN 260544
TAFLUK
TAF
KLUK 260544Z 2606/2706 22005KT P6SM FEW250
     FM261500 21008KT P6SM FEW250
     FM262300 21005KT P6SM BKN130=

USA.gov is the U.S. government's official web portal to all federal, state and local government web resources and services.